createdAt,value
2018-09-17T00:06:15.608Z,54.75
2018-09-17T00:09:03.291Z,53.33
2018-09-17T00:11:50.983Z,54.39
2018-09-17T00:14:38.681Z,55.31
2018-09-17T00:17:26.377Z,55.49
2018-09-17T00:20:14.030Z,55.37
2018-09-17T00:23:02.169Z,55.56
2018-09-17T01:00:49.896Z,55.29
2018-09-17T01:06:59.376Z,56.75
2018-09-17T01:12:54.164Z,57.41
2018-09-17T02:06:51.461Z,60.43
2018-09-17T02:09:38.980Z,60.25
2018-09-17T02:31:20.917Z,61.59
2018-09-17T02:34:08.676Z,62.38
2018-09-17T02:52:54.062Z,62.66
2018-09-17T03:33:29.908Z,64.34
2018-09-17T03:58:32.200Z,64.86
2018-09-17T04:04:32.010Z,65.97
2018-09-17T04:13:33.497Z,65.78
2018-09-17T04:32:04.920Z,67.61
2018-09-17T04:34:53.623Z,68.01
2018-09-17T04:37:41.224Z,67.82
2018-09-17T04:40:29.000Z,67.40
2018-09-17T04:49:43.885Z,67.85
2018-09-17T04:52:32.217Z,68.13
2018-09-17T04:55:22.489Z,67.97
2018-09-17T05:01:42.881Z,68.20
2018-09-17T05:07:39.247Z,68.86
2018-09-17T05:29:16.776Z,67.82
2018-09-17T05:35:26.325Z,66.63
2018-09-17T05:38:23.507Z,66.24
2018-09-17T05:41:11.061Z,66.78
2018-09-17T05:43:59.638Z,68.09
2018-09-17T05:46:47.148Z,67.47
2018-09-17T06:08:18.248Z,66.50
2018-09-17T06:11:06.654Z,66.58
2018-09-17T06:13:54.348Z,65.61
2018-09-17T06:16:42.483Z,65.83
2018-09-17T06:19:30.016Z,64.53
2018-09-17T06:22:20.420Z,64.61
2018-09-17T06:25:07.744Z,64.66
2018-09-17T06:27:54.889Z,64.48
2018-09-17T06:31:00.769Z,65.04
2018-09-17T06:33:49.920Z,64.98
2018-09-17T06:36:52.629Z,64.30
2018-09-17T06:39:45.719Z,64.03
2018-09-17T06:42:37.062Z,63.54
2018-09-17T06:48:33.158Z,62.81
2018-09-17T06:51:21.280Z,62.68
2018-09-17T06:54:13.119Z,62.32
2018-09-17T06:57:01.396Z,61.44
2018-09-17T06:59:55.499Z,61.29
2018-09-17T07:02:43.632Z,60.74
2018-09-17T07:05:38.990Z,60.11
2018-09-17T07:17:55.281Z,57.95
2018-09-17T07:20:42.702Z,57.28
2018-09-17T07:26:37.593Z,56.19
2018-09-17T07:29:25.072Z,55.62
2018-09-17T07:32:13.066Z,55.27
2018-09-17T07:35:02.116Z,54.78
2018-09-17T07:37:49.903Z,54.30
2018-09-17T07:43:53.763Z,53.08
2018-09-17T07:46:45.024Z,52.51
2018-09-17T07:49:50.991Z,52.42
2018-09-17T07:55:49.865Z,51.04
2018-09-17T08:05:02.465Z,49.39
2018-09-17T08:07:49.969Z,44.50
2018-09-17T08:10:37.934Z,46.85
2018-09-17T08:13:25.446Z,47.06
2018-09-17T08:16:29.019Z,46.80
2018-09-17T08:19:24.699Z,46.33
2018-09-17T08:31:47.345Z,44.74
2018-09-17T08:37:47.319Z,44.02
2018-09-17T08:49:55.310Z,43.26
2018-09-17T08:59:08.948Z,42.15
2018-09-17T09:08:22.564Z,40.26
2018-09-17T09:11:28.992Z,34.38
2018-09-17T09:14:19.452Z,37.11
2018-09-17T09:17:08.769Z,33.02
2018-09-17T09:23:16.810Z,32.09
2018-09-17T09:26:04.746Z,34.42
2018-09-17T09:29:04.518Z,35.11
2018-09-17T09:31:53.599Z,34.56
2018-09-17T09:34:42.050Z,34.89
2018-09-17T09:40:49.393Z,35.17
2018-09-17T09:43:53.856Z,34.03
2018-09-17T09:46:41.783Z,34.91
2018-09-17T09:49:31.436Z,31.26
2018-09-17T09:55:31.333Z,34.91
2018-09-17T09:58:22.313Z,35.04
2018-09-17T10:01:14.731Z,35.07
2018-09-17T10:04:07.051Z,35.19
2018-09-17T10:16:33.772Z,33.69
2018-09-17T10:19:21.452Z,33.51
2018-09-17T10:22:18.967Z,33.37
2018-09-17T10:28:13.972Z,33.83
2018-09-17T10:31:04.345Z,33.27
2018-09-17T10:37:17.071Z,29.98
2018-09-17T10:49:28.788Z,31.81
2018-09-17T10:52:17.951Z,31.41
2018-09-17T10:55:21.986Z,31.50
2018-09-17T10:58:12.152Z,27.67
2018-09-17T11:00:59.843Z,29.78
2018-09-17T11:03:47.946Z,30.10
2018-09-17T11:06:36.796Z,27.66
2018-09-17T11:09:24.769Z,30.08
2018-09-17T11:21:35.691Z,30.17
2018-09-17T11:30:39.432Z,30.35
2018-09-17T11:33:26.989Z,30.24
2018-09-17T11:42:27.717Z,29.22
2018-09-17T11:45:22.498Z,28.67
2018-09-17T11:51:35.864Z,29.49
2018-09-17T11:54:25.694Z,29.53
2018-09-17T12:09:53.922Z,28.10
2018-09-17T12:13:01.769Z,28.49
2018-09-17T12:22:14.043Z,28.50
2018-09-17T12:25:01.435Z,28.62
2018-09-17T12:31:09.691Z,28.21
2018-09-17T12:58:58.183Z,27.77
2018-09-17T13:01:45.942Z,28.12
2018-09-17T13:07:40.991Z,26.73
2018-09-17T13:10:28.860Z,23.91
2018-09-17T13:16:27.154Z,27.12
2018-09-17T13:22:23.818Z,26.14
2018-09-17T13:25:12.317Z,24.66
2018-09-17T13:27:59.625Z,26.35
2018-09-17T13:30:47.173Z,26.87
2018-09-17T13:36:51.250Z,27.29
2018-09-17T13:39:38.981Z,26.73
2018-09-17T13:42:28.312Z,26.95
2018-09-17T13:45:18.027Z,24.15
2018-09-17T13:48:25.957Z,23.57
2018-09-17T13:51:21.320Z,25.44
2018-09-17T13:54:11.757Z,25.77
2018-09-17T13:57:13.759Z,25.78
2018-09-17T14:03:23.771Z,25.54
2018-09-17T14:06:19.173Z,26.03
2018-09-17T14:09:07.470Z,26.03
2018-09-17T14:11:55.393Z,25.91
2018-09-17T14:14:44.312Z,23.02
2018-09-17T14:17:32.154Z,24.95
2018-09-17T14:20:19.977Z,25.37
2018-09-17T14:29:20.709Z,26.09
2018-09-17T14:35:16.853Z,24.01
2018-09-17T14:38:04.615Z,25.69
2018-09-17T14:40:52.498Z,25.99
2018-09-17T14:43:40.368Z,26.17
2018-09-17T14:46:28.002Z,26.14
2018-09-17T14:49:16.475Z,26.05
2018-09-17T14:55:12.135Z,26.88
2018-09-17T14:58:12.402Z,24.48
2018-09-17T15:01:01.019Z,25.76
2018-09-17T15:06:59.925Z,26.51
2018-09-17T15:09:50.452Z,26.33
2018-09-17T15:15:46.428Z,26.24
2018-09-17T15:21:43.466Z,26.56
2018-09-17T15:24:34.850Z,24.43
2018-09-17T15:27:22.384Z,26.00
2018-09-17T15:30:14.428Z,26.82
2018-09-17T15:36:11.875Z,27.40
2018-09-17T15:38:59.543Z,27.79
2018-09-17T15:41:51.023Z,28.04
2018-09-17T15:44:45.918Z,28.06
2018-09-17T15:47:33.365Z,26.85
2018-09-17T15:53:35.267Z,27.92
2018-09-17T15:56:22.921Z,28.35
2018-09-17T16:02:20.653Z,29.11
2018-09-17T16:08:19.730Z,30.03
2018-09-17T16:14:21.002Z,30.49
2018-09-17T16:17:24.003Z,30.73
2018-09-17T16:23:17.611Z,31.30
2018-09-17T16:26:12.572Z,30.57
2018-09-17T16:29:00.263Z,31.66
2018-09-17T16:34:55.137Z,32.39
2018-09-17T16:41:03.962Z,32.45
2018-09-17T16:43:51.529Z,32.88
2018-09-17T16:46:53.964Z,31.87
2018-09-17T16:56:20.030Z,33.80
2018-09-17T16:59:09.226Z,34.09
2018-09-17T17:05:10.814Z,34.60
2018-09-17T17:08:00.145Z,33.91
2018-09-17T17:10:49.103Z,34.96
2018-09-17T17:13:36.123Z,35.43
2018-09-17T17:16:23.692Z,36.06
2018-09-17T17:19:11.611Z,36.65
2018-09-17T17:21:59.213Z,36.62
2018-09-17T17:24:57.246Z,37.30
2018-09-17T17:27:44.508Z,37.30
2018-09-17T17:30:32.285Z,37.53
2018-09-17T17:33:19.944Z,37.86
2018-09-17T17:39:16.554Z,38.82
2018-09-17T17:42:14.708Z,39.37
2018-09-17T17:45:11.381Z,38.92
2018-09-17T17:47:59.970Z,39.93
2018-09-17T17:50:48.793Z,39.91
2018-09-17T17:53:36.436Z,40.21
2018-09-17T17:56:24.838Z,40.27
2018-09-17T17:59:12.479Z,40.36
2018-09-17T18:02:00.743Z,40.49
2018-09-17T18:04:50.431Z,40.51
2018-09-17T18:07:37.848Z,40.78
2018-09-17T18:10:35.793Z,41.17
2018-09-17T18:13:23.051Z,41.47
2018-09-17T18:16:11.244Z,41.86
2018-09-17T18:18:59.424Z,41.90
2018-09-17T18:28:00.548Z,41.50
2018-09-17T18:30:49.821Z,42.92
2018-09-17T18:33:40.785Z,42.56
2018-09-17T18:36:35.711Z,42.18
2018-09-17T18:39:24.022Z,42.71
2018-09-17T18:42:11.467Z,42.66
2018-09-17T18:44:58.755Z,43.02
2018-09-17T18:47:48.454Z,42.84
2018-09-17T18:50:36.126Z,43.25
2018-09-17T18:53:24.506Z,43.64
2018-09-17T18:59:18.557Z,43.50
2018-09-17T19:02:07.252Z,41.61
2018-09-17T19:04:54.649Z,44.01
2018-09-17T19:10:49.609Z,44.67
2018-09-17T19:13:38.379Z,44.96
2018-09-17T19:16:25.550Z,45.07
2018-09-17T19:19:12.952Z,45.43
2018-09-17T19:22:02.505Z,45.39
2018-09-17T19:24:50.414Z,44.51
2018-09-17T19:27:38.130Z,44.78
2018-09-17T19:30:33.805Z,44.89
2018-09-17T19:33:21.594Z,44.91
2018-09-17T19:36:10.024Z,45.26
2018-09-17T19:39:16.940Z,45.54
2018-09-17T19:42:04.201Z,45.27
2018-09-17T19:44:52.435Z,45.44
2018-09-17T19:47:39.968Z,45.79
2018-09-17T19:50:27.018Z,46.02
2018-09-17T19:53:14.479Z,46.04
2018-09-17T19:56:02.444Z,46.05
2018-09-17T19:58:50.846Z,46.12
2018-09-17T20:01:38.761Z,45.99
2018-09-17T20:07:33.225Z,46.22
2018-09-17T20:10:31.479Z,45.91
2018-09-17T20:13:23.110Z,46.36
2018-09-17T20:16:10.576Z,46.71
2018-09-17T20:18:58.899Z,46.84
2018-09-17T20:21:47.504Z,46.82
2018-09-17T20:24:36.138Z,47.16
2018-09-17T20:27:24.275Z,47.17
2018-09-17T20:30:12.169Z,46.95
2018-09-17T20:33:01.446Z,47.87
2018-09-17T20:35:48.766Z,48.31
2018-09-17T20:38:36.538Z,47.99
2018-09-17T20:41:31.444Z,48.32
2018-09-17T20:44:18.891Z,48.40
2018-09-17T20:47:07.519Z,48.68
2018-09-17T20:49:54.832Z,48.72
2018-09-17T20:52:42.150Z,48.25
2018-09-17T20:55:30.095Z,48.54
2018-09-17T21:01:23.491Z,48.49
2018-09-17T21:04:10.667Z,48.28
2018-09-17T21:06:58.347Z,48.64
2018-09-17T21:09:46.082Z,48.66
2018-09-17T21:15:39.729Z,48.48
2018-09-17T21:18:26.868Z,50.27
2018-09-17T21:21:15.375Z,50.69
2018-09-17T21:24:03.612Z,51.11
2018-09-17T21:26:58.892Z,50.53
2018-09-17T21:29:47.361Z,50.22
2018-09-17T21:32:35.483Z,48.45
2018-09-17T21:35:23.847Z,50.14
2018-09-17T21:38:11.318Z,51.29
2018-09-17T21:44:05.362Z,51.58
2018-09-17T21:46:53.951Z,51.97
2018-09-17T21:49:43.271Z,52.39
2018-09-17T21:58:46.732Z,52.54
2018-09-17T22:01:34.221Z,50.52
2018-09-17T22:04:24.392Z,50.81
2018-09-17T22:07:12.816Z,49.60
2018-09-17T22:10:16.231Z,50.24
2018-09-17T22:13:05.112Z,49.89
2018-09-17T22:15:52.845Z,49.94
2018-09-17T22:18:41.231Z,50.42
2018-09-17T22:21:28.930Z,50.79
2018-09-17T22:24:16.482Z,51.22
2018-09-17T22:27:04.361Z,52.60
2018-09-17T22:29:51.565Z,52.66
2018-09-17T22:32:40.008Z,52.80
2018-09-17T22:35:30.238Z,53.32
2018-09-17T22:38:18.824Z,53.37
2018-09-17T22:41:07.439Z,53.10
2018-09-17T22:43:55.625Z,52.74
2018-09-17T22:49:49.475Z,51.86
2018-09-17T22:55:49.385Z,52.17
2018-09-17T23:08:08.832Z,52.26
2018-09-17T23:11:03.796Z,52.70
2018-09-17T23:13:52.138Z,52.55
2018-09-17T23:16:40.122Z,52.56
2018-09-17T23:25:41.157Z,52.33
2018-09-17T23:28:32.125Z,53.64
2018-09-17T23:31:19.992Z,53.51
2018-09-17T23:34:16.225Z,53.71
2018-09-17T23:37:04.255Z,54.13
2018-09-17T23:39:51.411Z,54.14
2018-09-17T23:42:39.616Z,54.07
2018-09-17T23:45:27.484Z,54.23
2018-09-17T23:48:16.195Z,54.23
2018-09-17T23:51:11.525Z,54.25
2018-09-17T23:53:59.743Z,54.56
2018-09-17T23:56:55.043Z,53.93
2018-09-17T23:59:43.898Z,54.60
